createdAt,value
2022-08-10T00:02:12.649Z,1.87
2022-08-10T00:04:39.325Z,1.40
2022-08-10T00:07:05.993Z,1.80
2022-08-10T00:09:32.665Z,1.67
2022-08-10T00:12:19.335Z,1.67
2022-08-10T00:14:46.169Z,1.60
2022-08-10T00:17:12.850Z,1.57
2022-08-10T00:20:03.630Z,1.97
2022-08-10T00:22:26.547Z,1.70
2022-08-10T00:24:57.269Z,2.00
2022-08-10T00:27:57.859Z,2.03
2022-08-10T00:30:12.113Z,1.70
2022-08-10T00:32:38.750Z,1.50
2022-08-10T00:35:06.313Z,1.80
2022-08-10T00:37:32.914Z,1.50
2022-08-10T00:39:59.647Z,1.47
2022-08-10T00:42:26.485Z,1.50
2022-08-10T00:44:53.610Z,1.60
2022-08-10T00:47:36.192Z,1.53
2022-08-10T00:50:06.707Z,1.70
2022-08-10T00:52:35.231Z,1.50
2022-08-10T00:55:04.235Z,1.90
2022-08-10T00:57:30.985Z,1.80
2022-08-10T01:00:00.107Z,1.63
2022-08-10T01:02:29.786Z,1.90
2022-08-10T01:05:00.279Z,2.10
2022-08-10T01:07:41.923Z,1.60
2022-08-10T01:10:28.321Z,2.00
2022-08-10T01:13:06.785Z,1.73
2022-08-10T01:15:51.480Z,1.50
2022-08-10T01:18:56.600Z,1.47
2022-08-10T01:21:59.189Z,1.87
2022-08-10T01:24:34.766Z,2.10
2022-08-10T01:27:27.468Z,1.37
2022-08-10T01:30:02.869Z,1.63
2022-08-10T01:32:41.286Z,2.10
2022-08-10T01:35:10.895Z,2.00
2022-08-10T01:37:43.738Z,2.47
2022-08-10T01:40:24.947Z,1.90
2022-08-10T01:42:54.261Z,2.50
2022-08-10T01:45:24.234Z,2.10
2022-08-10T01:48:16.508Z,2.43
2022-08-10T01:50:59.652Z,2.10
2022-08-10T01:53:53.596Z,2.50
2022-08-10T01:56:23.441Z,2.10
2022-08-10T01:58:54.451Z,2.40
2022-08-10T02:01:25.417Z,2.67
2022-08-10T02:04:03.830Z,2.30
2022-08-10T02:06:36.938Z,2.17
2022-08-10T02:09:07.104Z,2.47
2022-08-10T02:11:57.561Z,2.60
2022-08-10T02:14:33.590Z,2.00
2022-08-10T02:17:07.669Z,2.27
2022-08-10T02:19:38.392Z,2.20
2022-08-10T02:22:36.276Z,2.23
2022-08-10T02:24:55.964Z,2.20
2022-08-10T02:27:24.851Z,2.30
2022-08-10T02:29:53.658Z,2.23
2022-08-10T02:32:36.604Z,2.20
2022-08-10T02:35:13.942Z,2.50
2022-08-10T02:37:51.193Z,2.43
2022-08-10T02:45:12.911Z,2.60
2022-08-10T02:45:21.567Z,2.43
2022-08-10T02:46:09.756Z,3.00
2022-08-10T02:48:42.495Z,2.90
2022-08-10T02:51:16.027Z,2.47
2022-08-10T02:53:54.298Z,2.77
2022-08-10T02:56:36.523Z,2.50
2022-08-10T02:59:11.023Z,2.60
2022-08-10T03:01:42.765Z,2.47
2022-08-10T03:04:20.630Z,2.90
2022-08-10T03:07:12.949Z,2.60
2022-08-10T03:09:41.517Z,2.90
2022-08-10T03:12:16.781Z,2.80
2022-08-10T03:14:59.835Z,3.07
2022-08-10T03:17:28.196Z,2.67
2022-08-10T03:20:34.625Z,3.10
2022-08-10T03:22:45.152Z,3.20
2022-08-10T03:25:13.774Z,2.70
2022-08-10T03:27:42.580Z,2.87
2022-08-10T03:30:31.638Z,2.87
2022-08-10T03:32:57.449Z,3.40
2022-08-10T03:35:25.040Z,3.40
2022-08-10T03:37:51.851Z,3.97
2022-08-10T03:40:45.766Z,3.27
2022-08-10T03:43:20.402Z,3.80
2022-08-10T03:46:02.337Z,3.33
2022-08-10T03:48:44.602Z,4.07
2022-08-10T03:51:16.177Z,3.50
2022-08-10T03:54:02.716Z,4.00
2022-08-10T03:56:32.607Z,3.70
2022-08-10T03:59:00.612Z,3.50
2022-08-10T04:02:41.829Z,3.40
2022-08-10T04:04:19.221Z,3.13
2022-08-10T04:06:54.915Z,3.63
2022-08-10T04:09:23.841Z,3.70
2022-08-10T04:11:50.465Z,4.10
2022-08-10T04:14:44.950Z,3.93
2022-08-10T04:17:03.798Z,3.97
2022-08-10T04:19:38.180Z,3.80
2022-08-10T04:22:10.541Z,4.00
2022-08-10T04:24:39.466Z,3.70
2022-08-10T04:27:06.514Z,4.17
2022-08-10T04:29:33.584Z,3.87
2022-08-10T04:32:03.378Z,4.03
2022-08-10T04:34:34.270Z,3.67
2022-08-10T04:37:08.887Z,4.13
2022-08-10T04:39:36.423Z,4.17
2022-08-10T04:42:03.758Z,4.40
2022-08-10T04:44:30.891Z,3.70
2022-08-10T04:46:59.099Z,3.80
2022-08-10T04:49:56.569Z,3.90
2022-08-10T04:52:13.777Z,4.23
2022-08-10T04:54:40.440Z,3.83
2022-08-10T04:57:08.873Z,4.20
2022-08-10T04:59:35.723Z,4.00
2022-08-10T05:02:30.713Z,5.23
2022-08-10T05:04:49.070Z,5.20
2022-08-10T05:07:18.685Z,4.60
2022-08-10T05:10:00.955Z,4.23
2022-08-10T05:12:37.795Z,3.83
2022-08-10T05:15:06.434Z,3.80
2022-08-10T05:17:34.378Z,3.97
2022-08-10T05:20:03.804Z,4.00
2022-08-10T05:22:34.724Z,3.50
2022-08-10T05:25:01.428Z,3.43
2022-08-10T05:27:28.065Z,3.43
2022-08-10T05:30:01.167Z,4.00
2022-08-10T05:32:29.614Z,4.03
2022-08-10T05:34:56.259Z,3.67
2022-08-10T05:38:10.249Z,3.83
2022-08-10T05:40:11.429Z,3.40
2022-08-10T05:42:39.110Z,3.80
2022-08-10T05:45:06.305Z,4.00
2022-08-10T05:48:54.049Z,3.40
2022-08-10T05:50:23.652Z,3.03
2022-08-10T05:52:50.495Z,3.40
2022-08-10T05:55:17.173Z,3.07
2022-08-10T05:57:45.245Z,3.47
2022-08-10T06:00:37.065Z,3.17
2022-08-10T06:03:06.865Z,3.17
2022-08-10T06:05:38.983Z,2.67
2022-08-10T06:08:12.752Z,3.10
2022-08-10T06:10:59.758Z,3.00
2022-08-10T06:14:12.550Z,2.97
2022-08-10T06:16:38.532Z,3.20
2022-08-10T06:19:06.555Z,3.03
2022-08-10T06:21:34.744Z,3.30
2022-08-10T06:24:02.750Z,3.03
2022-08-10T06:26:29.679Z,2.80
2022-08-10T06:29:09.787Z,2.80
2022-08-10T06:31:48.548Z,3.60
2022-08-10T06:34:20.280Z,3.00
2022-08-10T06:36:47.786Z,3.10
2022-08-10T06:39:32.976Z,2.80
2022-08-10T06:42:16.127Z,2.80
2022-08-10T06:44:58.170Z,3.27
2022-08-10T06:47:49.366Z,2.97
2022-08-10T06:50:34.984Z,2.97
2022-08-10T06:53:18.026Z,2.80
2022-08-10T06:55:59.953Z,3.10
2022-08-10T06:58:34.013Z,2.77
2022-08-10T07:01:02.957Z,2.63
2022-08-10T07:03:38.813Z,2.90
2022-08-10T07:06:07.635Z,2.43
2022-08-10T07:08:36.698Z,2.40
2022-08-10T07:11:08.812Z,2.40
2022-08-10T07:14:16.770Z,2.70
2022-08-10T07:16:28.548Z,2.50
2022-08-10T07:18:57.709Z,2.38
2022-08-10T07:21:26.985Z,2.67
2022-08-10T07:24:00.070Z,1.88
2022-08-10T07:26:30.536Z,2.10
2022-08-10T07:28:58.213Z,1.80
2022-08-10T07:31:56.455Z,1.95
2022-08-10T07:34:28.626Z,2.10
2022-08-10T07:37:00.707Z,1.75
2022-08-10T07:40:02.061Z,2.13
2022-08-10T07:42:22.717Z,2.03
2022-08-10T07:44:53.310Z,2.50
2022-08-10T07:47:52.921Z,2.45
2022-08-10T07:50:17.749Z,2.47
2022-08-10T07:52:47.385Z,1.90
2022-08-10T07:55:18.326Z,2.17
2022-08-10T07:57:48.492Z,2.20
2022-08-10T08:00:16.635Z,2.47
2022-08-10T08:02:55.691Z,2.10
2022-08-10T08:05:38.607Z,1.80
2022-08-10T08:08:14.932Z,2.30
2022-08-10T08:10:42.656Z,1.88
2022-08-10T08:13:11.519Z,2.08
2022-08-10T08:16:18.488Z,2.35
2022-08-10T08:18:27.153Z,2.28
2022-08-10T08:20:54.669Z,2.05
2022-08-10T08:24:07.805Z,2.72
2022-08-10T08:26:11.769Z,1.98
2022-08-10T08:28:45.528Z,2.17
2022-08-10T08:31:14.399Z,2.58
2022-08-10T08:33:43.833Z,2.20
2022-08-10T08:36:11.475Z,1.90
2022-08-10T08:38:39.094Z,2.60
2022-08-10T08:41:33.709Z,2.45
2022-08-10T08:44:14.183Z,2.45
2022-08-10T08:48:01.979Z,2.40
2022-08-10T08:50:33.194Z,2.30
2022-08-10T08:53:21.989Z,2.10
2022-08-10T08:56:17.122Z,2.55
2022-08-10T08:59:21.190Z,2.70
2022-08-10T09:02:00.609Z,2.60
2022-08-10T09:04:54.161Z,2.95
2022-08-10T09:08:01.494Z,2.55
2022-08-10T09:10:45.289Z,2.42
2022-08-10T09:13:41.175Z,2.60
2022-08-10T09:16:38.034Z,2.88
2022-08-10T09:19:19.575Z,2.60
2022-08-10T09:22:17.183Z,2.40
2022-08-10T09:25:00.875Z,2.75
2022-08-10T09:27:40.631Z,2.53
2022-08-10T09:30:12.883Z,2.35
2022-08-10T09:36:15.121Z,2.50
2022-08-10T09:36:27.001Z,2.13
2022-08-10T09:40:48.545Z,2.60
2022-08-10T09:42:25.674Z,2.63
2022-08-10T09:45:31.800Z,2.65
2022-08-10T09:48:19.674Z,2.83
2022-08-10T09:51:44.935Z,2.33
2022-08-10T09:54:24.578Z,2.17
2022-08-10T09:57:24.451Z,2.60
2022-08-10T10:00:02.685Z,2.53
2022-08-10T10:02:52.358Z,2.58
2022-08-10T10:05:51.304Z,2.45
2022-08-10T10:08:21.881Z,2.72
2022-08-10T10:11:00.026Z,2.75
2022-08-10T10:14:03.524Z,2.33
2022-08-10T10:16:41.938Z,2.45
2022-08-10T10:19:40.672Z,2.80
2022-08-10T10:22:17.093Z,2.22
2022-08-10T10:24:52.543Z,2.40
2022-08-10T10:27:24.986Z,2.58
2022-08-10T10:30:11.162Z,2.58
2022-08-10T10:33:00.339Z,2.28
2022-08-10T10:35:37.574Z,2.13
2022-08-10T10:38:08.830Z,2.05
2022-08-10T10:40:55.634Z,2.00
2022-08-10T10:43:36.119Z,2.60
2022-08-10T10:46:36.782Z,2.10
2022-08-10T10:49:38.967Z,2.08
2022-08-10T10:52:23.825Z,2.45
2022-08-10T10:55:03.017Z,2.30
2022-08-10T10:57:58.179Z,2.33
2022-08-10T11:00:28.788Z,2.22
2022-08-10T11:03:36.224Z,2.28
2022-08-10T11:06:45.465Z,2.40
2022-08-10T11:10:07.862Z,2.40
2022-08-10T11:12:34.669Z,2.03
2022-08-10T11:15:42.898Z,1.95
2022-08-10T11:18:48.107Z,2.10
2022-08-10T11:21:43.590Z,2.15
2022-08-10T11:24:47.005Z,2.40
2022-08-10T11:27:44.453Z,2.55
2022-08-10T11:30:27.195Z,2.00
2022-08-10T11:33:32.368Z,1.70
2022-08-10T11:36:10.449Z,2.50
2022-08-10T11:39:14.357Z,2.00
2022-08-10T11:42:09.033Z,2.20
2022-08-10T11:44:59.801Z,2.22
2022-08-10T11:47:34.111Z,2.40
2022-08-10T11:50:27.617Z,1.95
2022-08-10T11:53:24.663Z,2.35
2022-08-10T11:55:58.631Z,2.20
2022-08-10T11:58:50.308Z,1.90
2022-08-10T12:01:21.516Z,1.90
2022-08-10T12:03:48.858Z,2.25
2022-08-10T12:06:53.769Z,2.00
2022-08-10T12:10:10.582Z,1.70
2022-08-10T12:11:59.904Z,1.75
2022-08-10T12:14:33.464Z,2.03
2022-08-10T12:17:07.887Z,1.90
2022-08-10T12:19:59.626Z,1.90
2022-08-10T12:22:51.597Z,2.00
2022-08-10T12:25:55.832Z,1.90
2022-08-10T12:28:22.973Z,1.77
2022-08-10T12:31:12.125Z,1.75
2022-08-10T12:34:01.867Z,1.90
2022-08-10T12:36:37.832Z,2.00
2022-08-10T12:39:10.495Z,2.00
2022-08-10T12:41:45.498Z,2.10
2022-08-10T12:44:19.120Z,2.60
2022-08-10T12:47:01.548Z,2.00
2022-08-10T12:50:29.473Z,1.63
2022-08-10T12:52:57.678Z,2.10
2022-08-10T12:55:27.614Z,2.22
2022-08-10T12:57:57.430Z,1.85
2022-08-10T13:00:33.547Z,1.95
2022-08-10T13:03:03.000Z,2.00
2022-08-10T13:06:00.375Z,1.85
2022-08-10T13:08:40.769Z,1.77
2022-08-10T13:12:34.196Z,2.05
2022-08-10T13:14:03.365Z,2.33
2022-08-10T13:16:32.439Z,1.85
2022-08-10T13:19:02.846Z,1.83
2022-08-10T13:21:33.306Z,2.25
2022-08-10T13:24:15.919Z,2.67
2022-08-10T13:27:26.134Z,1.83
2022-08-10T13:29:48.902Z,2.00
2022-08-10T13:32:27.064Z,2.15
2022-08-10T13:34:57.842Z,2.00
2022-08-10T13:37:27.403Z,1.90
2022-08-10T13:40:00.433Z,1.90
2022-08-10T13:42:35.735Z,2.25
2022-08-10T13:45:12.023Z,1.77
2022-08-10T13:47:48.692Z,1.80
2022-08-10T13:50:34.605Z,1.90
2022-08-10T13:53:03.769Z,2.20
2022-08-10T13:55:54.401Z,2.10
2022-08-10T13:58:28.719Z,1.80
2022-08-10T14:00:57.064Z,1.98
2022-08-10T14:03:25.624Z,1.85
2022-08-10T14:05:55.476Z,1.85
2022-08-10T14:08:26.368Z,2.05
2022-08-10T14:11:08.717Z,1.73
2022-08-10T14:13:45.370Z,2.05
2022-08-10T14:16:13.281Z,2.05
2022-08-10T14:18:44.592Z,1.80
2022-08-10T14:21:11.955Z,1.92
2022-08-10T14:23:52.438Z,2.20
2022-08-10T14:26:30.438Z,2.22
2022-08-10T14:29:06.896Z,1.77
2022-08-10T14:31:36.938Z,1.80
2022-08-10T14:34:08.519Z,1.95
2022-08-10T14:36:59.220Z,1.80
2022-08-10T14:39:34.547Z,2.08
2022-08-10T14:42:16.769Z,2.28
2022-08-10T14:44:56.810Z,1.83
2022-08-10T14:47:53.597Z,2.00
2022-08-10T14:50:32.622Z,1.95
2022-08-10T14:53:26.544Z,1.83
2022-08-10T14:56:01.054Z,2.63
2022-08-10T14:59:05.285Z,1.90
2022-08-10T15:02:00.563Z,1.92
2022-08-10T15:04:26.680Z,2.00
2022-08-10T15:07:04.117Z,2.03
2022-08-10T15:09:59.789Z,2.00
2022-08-10T15:12:36.731Z,1.90
2022-08-10T15:15:09.402Z,2.03
2022-08-10T15:17:43.502Z,2.22
2022-08-10T15:20:20.772Z,1.75
2022-08-10T15:22:51.533Z,1.77
2022-08-10T15:25:24.412Z,1.65
2022-08-10T15:28:13.931Z,1.90
2022-08-10T15:30:46.131Z,2.13
2022-08-10T15:34:02.556Z,1.90
2022-08-10T15:36:43.123Z,2.20
2022-08-10T15:40:20.970Z,2.08
2022-08-10T15:42:09.021Z,2.10
2022-08-10T15:44:43.165Z,2.00
2022-08-10T15:47:27.292Z,2.30
2022-08-10T15:50:40.815Z,2.40
2022-08-10T15:53:16.943Z,2.10
2022-08-10T15:55:56.943Z,2.20
2022-08-10T15:58:59.059Z,1.92
2022-08-10T16:02:12.813Z,2.03
2022-08-10T16:04:51.858Z,1.77
2022-08-10T16:07:52.968Z,2.03
2022-08-10T16:10:30.385Z,1.83
2022-08-10T16:13:01.375Z,1.80
2022-08-10T16:15:30.170Z,2.10
2022-08-10T16:18:14.244Z,2.10
2022-08-10T16:20:54.679Z,2.10
2022-08-10T16:23:34.934Z,4.65
2022-08-10T16:26:14.509Z,2.70
2022-08-10T16:28:48.482Z,2.63
2022-08-10T16:31:20.370Z,2.70
2022-08-10T16:33:55.130Z,2.05
2022-08-10T16:36:28.871Z,2.17
2022-08-10T16:38:56.522Z,1.70
2022-08-10T16:42:03.838Z,2.30
2022-08-10T16:44:17.410Z,2.50
2022-08-10T16:46:45.364Z,2.05
2022-08-10T16:49:17.892Z,1.80
2022-08-10T16:51:50.387Z,2.13
2022-08-10T16:54:26.869Z,1.90
2022-08-10T16:57:05.719Z,1.55
2022-08-10T16:59:40.516Z,1.80
2022-08-10T17:02:11.242Z,1.92
2022-08-10T17:04:42.799Z,2.10
2022-08-10T17:07:14.489Z,1.67
2022-08-10T17:09:50.383Z,1.85
2022-08-10T17:12:23.282Z,1.80
2022-08-10T17:15:09.852Z,2.13
2022-08-10T17:17:47.413Z,1.80
2022-08-10T17:20:32.141Z,1.77
2022-08-10T17:23:02.652Z,1.75
2022-08-10T17:25:45.882Z,1.60
2022-08-10T17:28:35.504Z,1.92
2022-08-10T17:31:18.920Z,2.10
2022-08-10T17:33:57.731Z,2.28
2022-08-10T17:36:29.673Z,1.95
2022-08-10T17:38:56.937Z,1.80
2022-08-10T17:41:26.650Z,1.75
2022-08-10T17:44:02.829Z,1.90
2022-08-10T17:46:38.411Z,1.88
2022-08-10T17:49:10.656Z,1.77
2022-08-10T17:51:39.302Z,1.70
2022-08-10T17:54:15.301Z,1.65
2022-08-10T17:56:42.486Z,1.98
2022-08-10T17:59:17.266Z,1.73
2022-08-10T18:02:01.696Z,1.80
2022-08-10T18:04:41.493Z,1.48
2022-08-10T18:07:10.517Z,2.15
2022-08-10T18:09:49.752Z,1.77
2022-08-10T18:12:27.758Z,2.20
2022-08-10T18:15:04.374Z,1.63
2022-08-10T18:17:39.504Z,1.90
2022-08-10T18:20:08.389Z,1.50
2022-08-10T18:22:39.568Z,1.60
2022-08-10T18:25:08.584Z,1.20
2022-08-10T18:28:00.591Z,1.73
2022-08-10T18:30:28.654Z,1.70
2022-08-10T18:33:00.146Z,1.83
2022-08-10T18:35:34.743Z,1.90
2022-08-10T18:38:03.973Z,1.40
2022-08-10T18:40:36.170Z,1.50
2022-08-10T18:44:05.720Z,1.85
2022-08-10T18:45:56.622Z,1.30
2022-08-10T18:48:32.916Z,1.70
2022-08-10T18:51:05.603Z,1.10
2022-08-10T18:53:50.524Z,1.60
2022-08-10T18:56:23.267Z,1.10
2022-08-10T18:59:15.126Z,1.63
2022-08-10T19:02:10.526Z,1.27
2022-08-10T19:04:49.076Z,1.27
2022-08-10T19:07:41.283Z,1.58
2022-08-10T19:10:35.954Z,1.23
2022-08-10T19:13:32.299Z,1.35
2022-08-10T19:16:35.425Z,1.13
2022-08-10T19:19:27.366Z,1.38
2022-08-10T19:22:26.697Z,1.50
2022-08-10T19:25:01.080Z,1.00
2022-08-10T19:27:52.642Z,1.23
2022-08-10T19:30:29.206Z,1.30
2022-08-10T19:33:21.900Z,1.30
2022-08-10T19:36:20.939Z,1.30
2022-08-10T19:39:08.992Z,1.20
2022-08-10T19:41:44.652Z,1.63
2022-08-10T19:44:52.038Z,1.15
2022-08-10T19:47:46.889Z,1.30
2022-08-10T19:50:15.433Z,1.13
2022-08-10T19:53:03.897Z,1.15
2022-08-10T19:55:37.123Z,1.70
2022-08-10T19:58:22.034Z,1.67
2022-08-10T20:01:02.111Z,1.53
2022-08-10T20:03:53.716Z,1.40
2022-08-10T20:06:34.983Z,1.30
2022-08-10T20:09:10.554Z,1.30
2022-08-10T20:12:03.785Z,1.27
2022-08-10T20:14:48.172Z,1.23
2022-08-10T20:17:51.762Z,1.37
2022-08-10T20:20:40.332Z,1.50
2022-08-10T20:23:16.385Z,1.50
2022-08-10T20:25:59.225Z,1.30
2022-08-10T20:28:42.523Z,1.80
2022-08-10T20:31:17.774Z,1.03
2022-08-10T20:34:01.531Z,1.10
2022-08-10T20:36:34.108Z,1.70
2022-08-10T20:39:15.801Z,1.37
2022-08-10T20:42:11.242Z,1.53
2022-08-10T20:44:44.183Z,1.50
2022-08-10T20:47:26.468Z,1.40
2022-08-10T20:50:05.739Z,1.40
2022-08-10T20:52:35.215Z,1.80
2022-08-10T20:55:08.737Z,1.47
2022-08-10T20:58:00.176Z,1.00
2022-08-10T21:00:45.550Z,1.77
2022-08-10T21:03:44.061Z,1.20
2022-08-10T21:06:43.405Z,1.50
2022-08-10T21:09:38.559Z,1.30
2022-08-10T21:12:20.162Z,1.23
2022-08-10T21:14:58.647Z,1.30
2022-08-10T21:17:47.000Z,1.33
2022-08-10T21:23:08.425Z,1.50
2022-08-10T21:25:41.617Z,1.50
2022-08-10T21:25:58.919Z,1.47
2022-08-10T21:28:44.755Z,1.50
2022-08-10T21:31:42.799Z,1.37
2022-08-10T21:34:19.186Z,1.30
2022-08-10T21:37:16.434Z,1.47
2022-08-10T21:40:04.693Z,1.60
2022-08-10T21:43:11.127Z,1.57
2022-08-10T21:46:16.242Z,1.30
2022-08-10T21:49:14.751Z,1.50
2022-08-10T21:52:23.156Z,1.97
2022-08-10T21:55:24.926Z,1.47
2022-08-10T21:58:38.227Z,1.57
2022-08-10T22:01:39.299Z,1.30
2022-08-10T22:04:26.073Z,1.80
2022-08-10T22:07:13.069Z,1.50
2022-08-10T22:10:04.468Z,1.50
2022-08-10T22:12:57.710Z,2.00
2022-08-10T22:16:09.674Z,1.60
2022-08-10T22:19:01.308Z,1.50
2022-08-10T22:22:19.773Z,1.40
2022-08-10T22:25:20.778Z,1.43
2022-08-10T22:28:17.567Z,1.80
2022-08-10T22:31:32.151Z,1.63
2022-08-10T22:34:40.050Z,1.50
2022-08-10T22:37:43.298Z,1.50
2022-08-10T22:40:34.221Z,1.70
2022-08-10T22:43:35.911Z,1.50
2022-08-10T22:46:38.607Z,1.67
2022-08-10T22:49:05.461Z,1.63
2022-08-10T22:51:56.145Z,1.40
2022-08-10T22:55:03.518Z,1.77
2022-08-10T22:57:48.880Z,1.80
2022-08-10T23:00:18.948Z,1.73
2022-08-10T23:03:23.422Z,1.70
2022-08-10T23:06:00.326Z,1.70
2022-08-10T23:08:49.357Z,1.97
2022-08-10T23:11:24.711Z,1.63
2022-08-10T23:13:59.731Z,1.37
2022-08-10T23:16:47.310Z,2.17
2022-08-10T23:19:23.742Z,2.10
2022-08-10T23:22:04.257Z,1.63
2022-08-10T23:24:44.837Z,1.73
2022-08-10T23:27:38.345Z,1.50
2022-08-10T23:30:10.530Z,1.83
2022-08-10T23:32:45.163Z,1.83
2022-08-10T23:36:05.571Z,1.60
2022-08-10T23:38:04.795Z,2.00
2022-08-10T23:40:32.990Z,1.87
2022-08-10T23:43:01.438Z,1.97
2022-08-10T23:45:29.461Z,1.77
2022-08-10T23:48:20.161Z,1.63
2022-08-10T23:50:59.253Z,2.00
2022-08-10T23:53:47.746Z,1.90
2022-08-10T23:56:18.384Z,2.50
2022-08-10T23:58:52.532Z,2.20
